sensor_id;sensor_type;location;lat;lon;timestamp;pressure;altitude;pressure_sealevel;temperature;humidity
56402;BME280;42299;35.160;26.100;2024-02-26T00:01:34;100485.44;;;19.92;53.77
56402;BME280;42299;35.160;26.100;2024-02-26T00:06:57;100490.72;;;19.95;53.65
56402;BME280;42299;35.160;26.100;2024-02-26T00:12:19;100490.41;;;20.06;49.68
56402;BME280;42299;35.160;26.100;2024-02-26T00:17:43;100480.72;;;20.02;57.37
56402;BME280;42299;35.160;26.100;2024-02-26T00:23:06;100454.75;;;19.71;69.04
56402;BME280;42299;35.160;26.100;2024-02-26T00:28:28;100440.66;;;19.63;65.91
56402;BME280;42299;35.160;26.100;2024-02-26T00:33:52;100420.75;;;19.04;79.10
56402;BME280;42299;35.160;26.100;2024-02-26T00:39:15;100415.22;;;18.35;92.86
56402;BME280;42299;35.160;26.100;2024-02-26T00:44:38;100435.47;;;18.45;92.59
56402;BME280;42299;35.160;26.100;2024-02-26T00:50:02;100415.03;;;18.44;99.92
56402;BME280;42299;35.160;26.100;2024-02-26T00:55:24;100415.25;;;18.75;98.39
56402;BME280;42299;35.160;26.100;2024-02-26T01:00:47;100385.00;;;18.71;100.00
56402;BME280;42299;35.160;26.100;2024-02-26T01:06:11;100384.50;;;18.55;100.00
56402;BME280;42299;35.160;26.100;2024-02-26T01:11:33;100420.69;;;18.70;100.00
56402;BME280;42299;35.160;26.100;2024-02-26T01:16:56;100437.56;;;18.72;100.00
56402;BME280;42299;35.160;26.100;2024-02-26T01:22:20;100465.72;;;18.90;100.00
56402;BME280;42299;35.160;26.100;2024-02-26T01:27:43;100444.19;;;18.94;100.00
56402;BME280;42299;35.160;26.100;2024-02-26T01:33:05;100464.56;;;19.00;100.00
56402;BME280;42299;35.160;26.100;2024-02-26T01:38:29;100465.56;;;18.96;100.00
56402;BME280;42299;35.160;26.100;2024-02-26T01:43:52;100476.22;;;18.13;100.00
56402;BME280;42299;35.160;26.100;2024-02-26T01:49:15;100423.94;;;17.53;100.00
56402;BME280;42299;35.160;26.100;2024-02-26T01:54:40;100405.00;;;16.63;100.00
56402;BME280;42299;35.160;26.100;2024-02-26T02:00:04;100398.16;;;16.42;100.00
56402;BME280;42299;35.160;26.100;2024-02-26T02:05:30;100374.47;;;16.22;100.00
56402;BME280;42299;35.160;26.100;2024-02-26T02:10:54;100394.59;;;16.45;100.00
56402;BME280;42299;35.160;26.100;2024-02-26T02:16:17;100396.09;;;16.65;100.00
56402;BME280;42299;35.160;26.100;2024-02-26T02:21:40;100399.22;;;16.32;100.00
56402;BME280;42299;35.160;26.100;2024-02-26T02:27:03;100380.84;;;16.12;100.00
56402;BME280;42299;35.160;26.100;2024-02-26T02:32:26;100352.53;;;16.02;100.00
56402;BME280;42299;35.160;26.100;2024-02-26T02:37:52;100355.81;;;16.22;100.00
56402;BME280;42299;35.160;26.100;2024-02-26T02:43:17;100363.94;;;16.74;100.00
56402;BME280;42299;35.160;26.100;2024-02-26T02:48:41;100344.09;;;17.41;100.00
56402;BME280;42299;35.160;26.100;2024-02-26T02:54:06;100292.13;;;17.59;100.00
56402;BME280;42299;35.160;26.100;2024-02-26T02:59:28;100267.16;;;17.65;100.00
56402;BME280;42299;35.160;26.100;2024-02-26T03:04:50;100261.44;;;17.81;100.00
56402;BME280;42299;35.160;26.100;2024-02-26T03:10:15;100280.78;;;17.49;100.00
56402;BME280;42299;35.160;26.100;2024-02-26T03:15:37;100358.56;;;16.79;100.00
56402;BME280;42299;35.160;26.100;2024-02-26T03:21:02;100415.78;;;17.12;100.00
56402;BME280;42299;35.160;26.100;2024-02-26T03:26:26;100423.50;;;17.27;100.00
56402;BME280;42299;35.160;26.100;2024-02-26T03:31:49;100415.53;;;16.72;100.00
56402;BME280;42299;35.160;26.100;2024-02-26T03:37:11;100430.19;;;16.39;100.00
56402;BME280;42299;35.160;26.100;2024-02-26T03:42:35;100442.03;;;16.15;100.00
56402;BME280;42299;35.160;26.100;2024-02-26T03:47:57;100429.66;;;16.11;100.00
56402;BME280;42299;35.160;26.100;2024-02-26T03:53:20;100421.03;;;15.92;100.00
56402;BME280;42299;35.160;26.100;2024-02-26T03:58:44;100408.97;;;15.57;100.00
56402;BME280;42299;35.160;26.100;2024-02-26T04:04:07;100413.56;;;15.38;100.00
56402;BME280;42299;35.160;26.100;2024-02-26T04:09:31;100410.91;;;15.42;100.00
56402;BME280;42299;35.160;26.100;2024-02-26T04:14:55;100424.16;;;15.44;100.00
56402;BME280;42299;35.160;26.100;2024-02-26T04:20:17;100422.31;;;15.52;100.00
56402;BME280;42299;35.160;26.100;2024-02-26T04:25:40;100416.97;;;15.57;100.00
56402;BME280;42299;35.160;26.100;2024-02-26T04:31:04;100423.31;;;15.40;100.00
56402;BME280;42299;35.160;26.100;2024-02-26T04:36:26;100417.19;;;15.31;100.00
56402;BME280;42299;35.160;26.100;2024-02-26T04:41:49;100432.31;;;15.26;100.00
56402;BME280;42299;35.160;26.100;2024-02-26T04:47:13;100431.53;;;15.16;100.00
56402;BME280;42299;35.160;26.100;2024-02-26T04:52:36;100450.22;;;15.05;100.00
56402;BME280;42299;35.160;26.100;2024-02-26T04:57:58;100458.28;;;14.90;100.00
56402;BME280;42299;35.160;26.100;2024-02-26T05:03:22;100464.56;;;14.79;100.00
56402;BME280;42299;35.160;26.100;2024-02-26T05:08:45;100478.69;;;14.85;100.00
56402;BME280;42299;35.160;26.100;2024-02-26T05:14:08;100499.88;;;14.97;100.00
56402;BME280;42299;35.160;26.100;2024-02-26T05:19:32;100501.47;;;15.26;100.00
56402;BME280;42299;35.160;26.100;2024-02-26T05:24:54;100490.66;;;15.47;100.00
56402;BME280;42299;35.160;26.100;2024-02-26T05:30:17;100495.56;;;15.91;100.00
56402;BME280;42299;35.160;26.100;2024-02-26T05:35:41;100491.25;;;16.54;100.00
56402;BME280;42299;35.160;26.100;2024-02-26T05:41:04;100492.63;;;17.42;100.00
56402;BME280;42299;35.160;26.100;2024-02-26T05:46:27;100491.66;;;20.25;100.00
56402;BME280;42299;35.160;26.100;2024-02-26T05:51:50;100502.94;;;20.38;100.00
56402;BME280;42299;35.160;26.100;2024-02-26T05:57:13;100512.81;;;18.97;100.00
56402;BME280;42299;35.160;26.100;2024-02-26T06:02:35;100531.16;;;19.12;100.00
56402;BME280;42299;35.160;26.100;2024-02-26T06:08:00;100516.81;;;20.83;100.00
56402;BME280;42299;35.160;26.100;2024-02-26T06:13:23;100511.34;;;18.82;100.00
56402;BME280;42299;35.160;26.100;2024-02-26T06:18:46;100531.78;;;17.42;100.00
56402;BME280;42299;35.160;26.100;2024-02-26T06:24:10;100530.41;;;17.18;100.00
56402;BME280;42299;35.160;26.100;2024-02-26T06:29:32;100541.88;;;20.18;100.00
56402;BME280;42299;35.160;26.100;2024-02-26T10:15:26;100460.91;;;17.78;100.00
56402;BME280;42299;35.160;26.100;2024-02-26T10:20:59;100440.34;;;17.81;100.00
56402;BME280;42299;35.160;26.100;2024-02-26T10:26:23;100459.56;;;16.99;100.00
56402;BME280;42299;35.160;26.100;2024-02-26T10:31:47;100448.28;;;17.35;100.00
56402;BME280;42299;35.160;26.100;2024-02-26T10:37:11;100437.53;;;20.12;100.00
56402;BME280;42299;35.160;26.100;2024-02-26T10:42:34;100414.69;;;21.41;100.00
56402;BME280;42299;35.160;26.100;2024-02-26T10:47:59;100401.19;;;20.90;100.00
56402;BME280;42299;35.160;26.100;2024-02-26T10:53:23;100389.75;;;20.56;100.00
56402;BME280;42299;35.160;26.100;2024-02-26T10:58:46;100382.34;;;21.94;100.00
56402;BME280;42299;35.160;26.100;2024-02-26T11:04:14;100358.25;;;20.62;100.00
56402;BME280;42299;35.160;26.100;2024-02-26T11:09:42;100350.03;;;19.14;100.00
56402;BME280;42299;35.160;26.100;2024-02-26T11:15:10;100325.91;;;18.82;100.00
56402;BME280;42299;35.160;26.100;2024-02-26T11:20:34;100310.97;;;18.73;100.00
56402;BME280;42299;35.160;26.100;2024-02-26T11:26:01;100268.38;;;18.28;100.00
56402;BME280;42299;35.160;26.100;2024-02-26T11:31:25;100293.03;;;17.61;100.00
56402;BME280;42299;35.160;26.100;2024-02-26T11:36:50;100243.75;;;16.36;100.00
56402;BME280;42299;35.160;26.100;2024-02-26T11:42:14;100257.25;;;15.63;100.00
56402;BME280;42299;35.160;26.100;2024-02-26T11:47:37;100322.97;;;15.56;100.00
56402;BME280;42299;35.160;26.100;2024-02-26T11:53:24;100345.94;;;16.30;100.00
56402;BME280;42299;35.160;26.100;2024-02-26T11:58:47;100352.28;;;16.82;100.00
56402;BME280;42299;35.160;26.100;2024-02-26T12:04:16;100331.34;;;17.57;100.00
56402;BME280;42299;35.160;26.100;2024-02-26T12:09:41;100372.09;;;17.68;100.00
56402;BME280;42299;35.160;26.100;2024-02-26T12:15:05;100350.78;;;18.47;100.00
56402;BME280;42299;35.160;26.100;2024-02-26T12:20:33;100348.47;;;18.31;100.00
56402;BME280;42299;35.160;26.100;2024-02-26T12:26:01;100367.53;;;18.55;100.00
56402;BME280;42299;35.160;26.100;2024-02-26T12:31:26;100366.47;;;18.63;100.00
56402;BME280;42299;35.160;26.100;2024-02-26T12:36:49;100373.34;;;18.74;100.00
56402;BME280;42299;35.160;26.100;2024-02-26T12:42:16;100360.19;;;18.64;100.00
56402;BME280;42299;35.160;26.100;2024-02-26T12:47:38;100397.72;;;17.28;100.00
56402;BME280;42299;35.160;26.100;2024-02-26T12:53:01;100364.94;;;16.08;100.00
56402;BME280;42299;35.160;26.100;2024-02-26T12:58:25;100381.16;;;14.99;100.00
56402;BME280;42299;35.160;26.100;2024-02-26T13:03:49;100371.59;;;14.75;100.00
56402;BME280;42299;35.160;26.100;2024-02-26T13:09:13;100366.59;;;15.37;100.00
56402;BME280;42299;35.160;26.100;2024-02-26T13:14:38;100383.06;;;15.75;100.00
56402;BME280;42299;35.160;26.100;2024-02-26T13:20:01;100378.94;;;16.20;100.00
56402;BME280;42299;35.160;26.100;2024-02-26T13:25:24;100373.91;;;16.62;100.00
56402;BME280;42299;35.160;26.100;2024-02-26T13:30:52;100346.59;;;17.01;100.00
56402;BME280;42299;35.160;26.100;2024-02-26T13:36:17;100315.28;;;18.03;100.00
56402;BME280;42299;35.160;26.100;2024-02-26T13:41:39;100311.41;;;18.53;100.00
56402;BME280;42299;35.160;26.100;2024-02-26T13:47:07;100324.75;;;18.55;100.00
56402;BME280;42299;35.160;26.100;2024-02-26T13:52:29;100352.91;;;18.71;100.00
56402;BME280;42299;35.160;26.100;2024-02-26T13:57:54;100370.84;;;18.66;100.00
56402;BME280;42299;35.160;26.100;2024-02-26T14:03:19;100361.66;;;18.39;100.00
56402;BME280;42299;35.160;26.100;2024-02-26T14:08:42;100359.03;;;18.38;100.00
56402;BME280;42299;35.160;26.100;2024-02-26T14:14:04;100365.78;;;18.91;100.00
56402;BME280;42299;35.160;26.100;2024-02-26T14:19:30;100365.44;;;19.04;100.00
56402;BME280;42299;35.160;26.100;2024-02-26T14:24:52;100381.63;;;19.34;100.00
56402;BME280;42299;35.160;26.100;2024-02-26T14:30:15;100384.16;;;19.04;100.00
56402;BME280;42299;35.160;26.100;2024-02-26T14:35:41;100383.69;;;18.89;100.00
56402;BME280;42299;35.160;26.100;2024-02-26T14:41:04;100353.50;;;18.45;100.00
56402;BME280;42299;35.160;26.100;2024-02-26T14:46:26;100358.91;;;18.04;100.00
56402;BME280;42299;35.160;26.100;2024-02-26T14:51:51;100352.59;;;17.65;100.00
56402;BME280;42299;35.160;26.100;2024-02-26T14:57:14;100361.00;;;17.40;100.00
56402;BME280;42299;35.160;26.100;2024-02-26T15:02:37;100370.44;;;17.12;100.00
56402;BME280;42299;35.160;26.100;2024-02-26T15:08:01;100371.69;;;16.90;100.00
56402;BME280;42299;35.160;26.100;2024-02-26T15:13:24;100361.22;;;16.19;100.00
56402;BME280;42299;35.160;26.100;2024-02-26T15:18:46;100376.06;;;15.68;100.00
56402;BME280;42299;35.160;26.100;2024-02-26T15:24:10;100387.16;;;15.21;100.00
56402;BME280;42299;35.160;26.100;2024-02-26T15:29:33;100338.53;;;15.08;100.00
56402;BME280;42299;35.160;26.100;2024-02-26T15:34:56;100337.66;;;15.06;100.00
56402;BME280;42299;35.160;26.100;2024-02-26T15:40:20;100311.09;;;15.06;100.00
56402;BME280;42299;35.160;26.100;2024-02-26T15:45:46;100307.53;;;15.07;100.00
56402;BME280;42299;35.160;26.100;2024-02-26T15:51:18;100340.31;;;15.09;100.00
56402;BME280;42299;35.160;26.100;2024-02-26T15:56:43;100359.00;;;15.00;100.00
56402;BME280;42299;35.160;26.100;2024-02-26T16:02:05;100348.31;;;15.03;100.00
56402;BME280;42299;35.160;26.100;2024-02-26T16:07:32;100346.53;;;15.05;100.00
56402;BME280;42299;35.160;26.100;2024-02-26T16:13:00;100358.94;;;15.06;100.00
56402;BME280;42299;35.160;26.100;2024-02-26T16:18:23;100364.19;;;15.15;100.00
56402;BME280;42299;35.160;26.100;2024-02-26T16:23:45;100367.59;;;15.28;100.00
56402;BME280;42299;35.160;26.100;2024-02-26T16:29:10;100370.84;;;15.56;100.00
56402;BME280;42299;35.160;26.100;2024-02-26T16:34:33;100369.16;;;15.49;100.00
56402;BME280;42299;35.160;26.100;2024-02-26T16:39:57;100336.53;;;15.30;100.00
56402;BME280;42299;35.160;26.100;2024-02-26T16:45:22;100335.69;;;15.27;100.00
56402;BME280;42299;35.160;26.100;2024-02-26T16:50:47;100328.69;;;15.16;100.00
56402;BME280;42299;35.160;26.100;2024-02-26T16:56:10;100321.72;;;15.03;100.00
56402;BME280;42299;35.160;26.100;2024-02-26T17:01:34;100335.19;;;14.85;100.00
56402;BME280;42299;35.160;26.100;2024-02-26T17:06:57;100354.63;;;14.90;100.00
56402;BME280;42299;35.160;26.100;2024-02-26T17:12:19;100366.13;;;14.94;100.00
56402;BME280;42299;35.160;26.100;2024-02-26T17:17:44;100388.16;;;15.06;100.00
56402;BME280;42299;35.160;26.100;2024-02-26T17:23:07;100390.94;;;14.94;100.00
56402;BME280;42299;35.160;26.100;2024-02-26T17:28:29;100421.00;;;15.02;100.00
56402;BME280;42299;35.160;26.100;2024-02-26T17:33:54;100436.91;;;15.08;100.00
56402;BME280;42299;35.160;26.100;2024-02-26T17:39:16;100447.44;;;15.18;100.00
56402;BME280;42299;35.160;26.100;2024-02-26T17:44:39;100446.66;;;15.06;100.00
56402;BME280;42299;35.160;26.100;2024-02-26T17:50:03;100444.09;;;14.94;100.00
56402;BME280;42299;35.160;26.100;2024-02-26T17:55:28;100440.56;;;14.95;100.00
56402;BME280;42299;35.160;26.100;2024-02-26T18:00:51;100434.31;;;14.99;100.00
56402;BME280;42299;35.160;26.100;2024-02-26T18:06:15;100426.22;;;15.16;100.00
56402;BME280;42299;35.160;26.100;2024-02-26T18:11:37;100432.50;;;15.04;100.00
56402;BME280;42299;35.160;26.100;2024-02-26T18:17:00;100429.09;;;14.86;100.00
56402;BME280;42299;35.160;26.100;2024-02-26T18:22:24;100420.31;;;14.76;100.00
56402;BME280;42299;35.160;26.100;2024-02-26T18:27:46;100409.66;;;14.77;100.00
56402;BME280;42299;35.160;26.100;2024-02-26T18:33:10;100404.28;;;14.87;100.00
56402;BME280;42299;35.160;26.100;2024-02-26T18:38:34;100416.47;;;15.12;100.00
56402;BME280;42299;35.160;26.100;2024-02-26T18:43:57;100444.69;;;15.30;100.00
56402;BME280;42299;35.160;26.100;2024-02-26T18:49:21;100458.91;;;15.29;100.00
56402;BME280;42299;35.160;26.100;2024-02-26T18:54:45;100456.13;;;15.39;100.00
56402;BME280;42299;35.160;26.100;2024-02-26T19:00:08;100457.91;;;15.37;100.00
56402;BME280;42299;35.160;26.100;2024-02-26T19:05:31;100450.88;;;15.35;100.00
56402;BME280;42299;35.160;26.100;2024-02-26T19:10:55;100457.84;;;15.45;100.00
56402;BME280;42299;35.160;26.100;2024-02-26T19:16:20;100456.13;;;15.38;100.00
56402;BME280;42299;35.160;26.100;2024-02-26T19:21:45;100447.44;;;15.21;100.00
56402;BME280;42299;35.160;26.100;2024-02-26T19:27:09;100456.34;;;15.13;100.00
56402;BME280;42299;35.160;26.100;2024-02-26T19:32:32;100471.38;;;15.19;100.00
56402;BME280;42299;35.160;26.100;2024-02-26T19:37:55;100478.47;;;15.22;100.00
56402;BME280;42299;35.160;26.100;2024-02-26T19:43:19;100455.38;;;15.24;100.00
56402;BME280;42299;35.160;26.100;2024-02-26T19:48:41;100463.28;;;15.31;100.00
56402;BME280;42299;35.160;26.100;2024-02-26T19:54:04;100469.56;;;15.24;100.00
56402;BME280;42299;35.160;26.100;2024-02-26T19:59:28;100492.59;;;15.28;100.00
56402;BME280;42299;35.160;26.100;2024-02-26T20:04:51;100482.72;;;15.38;100.00
56402;BME280;42299;35.160;26.100;2024-02-26T20:10:14;100484.56;;;15.31;100.00
56402;BME280;42299;35.160;26.100;2024-02-26T20:15:38;100498.75;;;15.32;100.00
56402;BME280;42299;35.160;26.100;2024-02-26T20:21:01;100496.91;;;15.40;100.00
56402;BME280;42299;35.160;26.100;2024-02-26T20:26:24;100509.38;;;15.30;100.00
56402;BME280;42299;35.160;26.100;2024-02-26T20:31:48;100502.34;;;15.28;100.00
56402;BME280;42299;35.160;26.100;2024-02-26T20:37:10;100501.34;;;15.38;100.00
56402;BME280;42299;35.160;26.100;2024-02-26T20:42:34;100488.88;;;15.49;100.00
56402;BME280;42299;35.160;26.100;2024-02-26T20:47:58;100478.22;;;15.47;100.00
56402;BME280;42299;35.160;26.100;2024-02-26T20:53:20;100496.91;;;15.38;100.00
56402;BME280;42299;35.160;26.100;2024-02-26T20:58:43;100496.13;;;15.29;100.00
56402;BME280;42299;35.160;26.100;2024-02-26T21:04:07;100496.13;;;15.27;100.00
56402;BME280;42299;35.160;26.100;2024-02-26T21:09:30;100474.75;;;15.41;100.00
56402;BME280;42299;35.160;26.100;2024-02-26T21:14:53;100496.03;;;15.38;100.00
56402;BME280;42299;35.160;26.100;2024-02-26T21:20:17;100492.53;;;15.34;100.00
56402;BME280;42299;35.160;26.100;2024-02-26T21:25:40;100503.06;;;15.43;100.00
56402;BME280;42299;35.160;26.100;2024-02-26T21:31:03;100511.00;;;15.51;100.00
56402;BME280;42299;35.160;26.100;2024-02-26T21:36:27;100517.22;;;15.54;100.00
56402;BME280;42299;35.160;26.100;2024-02-26T21:41:49;100525.16;;;15.61;100.00
56402;BME280;42299;35.160;26.100;2024-02-26T21:47:12;100541.06;;;15.64;100.00
56402;BME280;42299;35.160;26.100;2024-02-26T21:52:37;100538.41;;;15.68;100.00
56402;BME280;42299;35.160;26.100;2024-02-26T21:58:00;100560.53;;;15.73;100.00
56402;BME280;42299;35.160;26.100;2024-02-26T22:03:23;100552.47;;;15.79;100.00
56402;BME280;42299;35.160;26.100;2024-02-26T22:08:47;100564.91;;;15.80;100.00
56402;BME280;42299;35.160;26.100;2024-02-26T22:14:10;100563.06;;;15.84;100.00
56402;BME280;42299;35.160;26.100;2024-02-26T22:19:33;100566.69;;;15.78;100.00
56402;BME280;42299;35.160;26.100;2024-02-26T22:24:57;100568.50;;;15.73;100.00
56402;BME280;42299;35.160;26.100;2024-02-26T22:30:19;100584.31;;;15.93;100.00
56402;BME280;42299;35.160;26.100;2024-02-26T22:35:42;100570.94;;;15.96;100.00
56402;BME280;42299;35.160;26.100;2024-02-26T22:41:06;100570.94;;;15.96;100.00
56402;BME280;42299;35.160;26.100;2024-02-26T22:46:28;100570.19;;;15.82;100.00
56402;BME280;42299;35.160;26.100;2024-02-26T22:51:51;100576.50;;;15.72;100.00
56402;BME280;42299;35.160;26.100;2024-02-26T22:57:16;100573.06;;;15.56;100.00
56402;BME280;42299;35.160;26.100;2024-02-26T23:02:39;100584.59;;;15.50;100.00
56402;BME280;42299;35.160;26.100;2024-02-26T23:08:02;100598.88;;;15.40;100.00
56402;BME280;42299;35.160;26.100;2024-02-26T23:13:26;100613.03;;;15.44;100.00
56402;BME280;42299;35.160;26.100;2024-02-26T23:18:49;100616.56;;;15.53;100.00
56402;BME280;42299;35.160;26.100;2024-02-26T23:24:11;100614.69;;;15.65;100.00
56402;BME280;42299;35.160;26.100;2024-02-26T23:29:36;100612.88;;;15.73;100.00
56402;BME280;42299;35.160;26.100;2024-02-26T23:34:59;100613.69;;;15.79;100.00
56402;BME280;42299;35.160;26.100;2024-02-26T23:40:22;100614.59;;;15.78;100.00
56402;BME280;42299;35.160;26.100;2024-02-26T23:45:47;100603.00;;;15.82;100.00
56402;BME280;42299;35.160;26.100;2024-02-26T23:51:09;100605.66;;;15.87;100.00
56402;BME280;42299;35.160;26.100;2024-02-26T23:56:32;100590.53;;;15.90;100.00
